createdAt,value
2019-03-04T00:01:47.579Z,8.20
2019-03-04T00:04:29.777Z,3.97
2019-03-04T00:07:11.980Z,5.93
2019-03-04T00:09:54.427Z,7.17
2019-03-04T00:12:36.536Z,4.27
2019-03-04T00:15:18.648Z,8.40
2019-03-04T00:17:49.470Z,6.57
2019-03-04T00:20:31.631Z,5.77
2019-03-04T00:23:13.879Z,5.30
2019-03-04T00:25:55.837Z,7.30
2019-03-04T00:28:37.653Z,6.13
2019-03-04T00:31:19.762Z,4.47
2019-03-04T00:34:01.956Z,5.77
2019-03-04T00:36:44.029Z,4.80
2019-03-04T00:39:26.146Z,6.03
2019-03-04T00:42:08.689Z,4.87
2019-03-04T00:44:51.203Z,5.47
2019-03-04T00:47:33.050Z,5.70
2019-03-04T00:50:15.173Z,8.67
2019-03-04T00:52:57.463Z,4.90
2019-03-04T00:55:39.451Z,7.00
2019-03-04T00:58:21.813Z,3.77
2019-03-04T01:01:03.913Z,4.47
2019-03-04T01:03:46.137Z,3.60
2019-03-04T01:06:28.419Z,3.00
2019-03-04T01:09:14.283Z,3.30
2019-03-04T01:11:56.234Z,2.80
2019-03-04T01:14:38.200Z,4.33
2019-03-04T01:17:22.186Z,3.37
2019-03-04T01:20:04.194Z,4.73
2019-03-04T01:22:46.306Z,2.10
2019-03-04T01:25:28.355Z,3.93
2019-03-04T01:27:58.715Z,3.07
2019-03-04T01:30:40.958Z,2.47
2019-03-04T01:33:11.244Z,4.17
2019-03-04T01:35:53.149Z,6.23
2019-03-04T01:38:35.403Z,3.73
2019-03-04T01:41:17.872Z,2.87
2019-03-04T01:43:59.978Z,4.33
2019-03-04T01:46:42.031Z,2.70
2019-03-04T01:49:24.173Z,5.13
2019-03-04T01:52:06.129Z,2.60
2019-03-04T01:54:48.003Z,1.47
2019-03-04T01:57:29.642Z,1.97
2019-03-04T02:00:11.685Z,1.57
2019-03-04T02:02:53.678Z,1.20
2019-03-04T02:05:35.918Z,2.40
2019-03-04T02:08:06.255Z,1.43
2019-03-04T02:10:55.478Z,1.67
2019-03-04T02:13:37.751Z,1.40
2019-03-04T02:16:19.787Z,5.20
2019-03-04T02:19:02.127Z,1.60
2019-03-04T02:21:44.079Z,1.30
2019-03-04T02:24:26.046Z,2.00
2019-03-04T02:27:09.959Z,1.47
2019-03-04T02:29:52.007Z,2.90
2019-03-04T02:32:33.935Z,1.50
2019-03-04T02:35:15.999Z,2.40
2019-03-04T02:38:00.087Z,3.33
2019-03-04T02:40:42.460Z,1.60
2019-03-04T02:43:24.573Z,1.50
2019-03-04T02:46:06.878Z,1.80
2019-03-04T02:48:49.002Z,2.40
2019-03-04T02:51:31.167Z,2.20
2019-03-04T02:54:13.027Z,1.70
2019-03-04T02:56:55.288Z,2.50
2019-03-04T02:59:37.364Z,3.50
2019-03-04T03:02:08.194Z,2.93
2019-03-04T03:04:50.477Z,2.23
2019-03-04T03:07:33.454Z,4.27
2019-03-04T03:10:15.275Z,1.70
2019-03-04T03:12:57.384Z,3.30
2019-03-04T03:15:39.482Z,2.53
2019-03-04T03:18:09.808Z,2.20
2019-03-04T03:20:53.315Z,2.43
2019-03-04T03:23:35.399Z,2.83
2019-03-04T03:26:19.036Z,4.70
2019-03-04T03:29:01.039Z,2.63
2019-03-04T03:31:43.363Z,3.10
2019-03-04T03:34:13.629Z,2.63
2019-03-04T03:37:02.958Z,3.07
2019-03-04T03:39:44.862Z,3.87
2019-03-04T03:42:15.107Z,2.87
2019-03-04T03:44:57.182Z,1.50
2019-03-04T03:47:39.083Z,2.73
2019-03-04T03:50:21.093Z,1.90
2019-03-04T03:53:03.056Z,2.70
2019-03-04T03:55:45.047Z,2.73
2019-03-04T03:58:15.287Z,2.17
2019-03-04T04:00:57.299Z,2.10
2019-03-04T04:03:39.514Z,2.10
2019-03-04T04:06:21.550Z,2.73
2019-03-04T04:09:04.169Z,2.57
2019-03-04T04:11:47.663Z,2.47
2019-03-04T04:14:17.891Z,2.07
2019-03-04T04:17:00.086Z,3.13
2019-03-04T04:19:42.063Z,2.30
2019-03-04T04:22:24.234Z,2.40
2019-03-04T04:25:06.054Z,1.90
2019-03-04T04:27:48.116Z,2.77
2019-03-04T04:33:12.693Z,2.03
2019-03-04T04:35:54.754Z,2.97
2019-03-04T04:38:36.778Z,3.00
2019-03-04T04:41:18.999Z,2.30
2019-03-04T04:44:01.289Z,3.20
2019-03-04T04:46:42.983Z,3.27
2019-03-04T04:49:24.506Z,2.97
2019-03-04T04:52:06.663Z,2.43
2019-03-04T04:54:48.670Z,2.63
2019-03-04T04:57:18.958Z,3.73
2019-03-04T05:00:09.798Z,3.60
2019-03-04T05:02:51.639Z,2.37
2019-03-04T05:05:21.863Z,2.87
2019-03-04T05:08:11.184Z,3.17
2019-03-04T05:10:53.393Z,3.27
2019-03-04T05:13:23.753Z,1.80
2019-03-04T05:16:13.035Z,2.10
2019-03-04T05:18:54.427Z,2.20
2019-03-04T05:21:24.702Z,2.37
2019-03-04T05:24:06.398Z,2.47
2019-03-04T05:26:48.506Z,3.57
2019-03-04T05:29:30.069Z,2.37
2019-03-04T05:32:12.258Z,2.00
2019-03-04T05:34:54.347Z,1.90
2019-03-04T05:37:24.610Z,2.70
2019-03-04T05:40:06.683Z,2.20
2019-03-04T05:42:48.986Z,2.97
2019-03-04T05:45:30.825Z,3.30
2019-03-04T05:48:13.139Z,2.97
2019-03-04T05:50:54.642Z,3.27
2019-03-04T05:53:24.907Z,2.67
2019-03-04T05:56:06.365Z,2.93
2019-03-04T05:58:48.578Z,3.17
2019-03-04T06:01:30.400Z,3.93
2019-03-04T06:04:12.540Z,3.30
2019-03-04T06:09:55.943Z,3.27
2019-03-04T06:12:27.830Z,2.97
2019-03-04T06:15:17.811Z,2.30
2019-03-04T06:18:00.030Z,3.57
2019-03-04T06:20:41.948Z,4.67
2019-03-04T06:23:24.274Z,2.80
2019-03-04T06:26:06.385Z,2.80
2019-03-04T06:28:49.558Z,3.07
2019-03-04T06:31:31.726Z,2.60
2019-03-04T06:34:13.799Z,3.37
2019-03-04T06:36:55.869Z,3.53
2019-03-04T06:39:38.109Z,2.70
2019-03-04T06:42:19.888Z,3.10
2019-03-04T06:45:01.817Z,3.97
2019-03-04T06:47:32.118Z,2.77
2019-03-04T06:50:42.012Z,2.87
2019-03-04T06:53:23.662Z,2.10
2019-03-04T06:56:05.802Z,3.93
2019-03-04T06:58:47.891Z,5.03
2019-03-04T07:01:29.351Z,2.93
2019-03-04T07:04:11.313Z,5.10
2019-03-04T07:06:53.647Z,1.20
2019-03-04T07:09:35.650Z,1.53
2019-03-04T07:12:17.705Z,2.00
2019-03-04T07:14:59.759Z,1.13
2019-03-04T07:17:41.818Z,3.00
2019-03-04T07:20:23.586Z,2.77
2019-03-04T07:23:05.515Z,2.70
2019-03-04T07:25:49.207Z,2.23
2019-03-04T07:28:31.171Z,3.73
2019-03-04T07:31:13.106Z,2.00
2019-03-04T07:33:55.147Z,1.77
2019-03-04T07:36:37.106Z,1.33
2019-03-04T07:39:18.974Z,1.20
2019-03-04T07:42:12.036Z,2.00
2019-03-04T07:44:54.199Z,2.95
2019-03-04T07:47:36.122Z,1.67
2019-03-04T07:50:18.181Z,2.10
2019-03-04T07:53:00.238Z,2.50
2019-03-04T07:55:42.446Z,1.63
2019-03-04T07:58:25.863Z,0.83
2019-03-04T08:01:08.278Z,1.67
2019-03-04T08:03:50.333Z,2.60
2019-03-04T08:06:32.690Z,1.47
2019-03-04T08:09:14.826Z,2.00
2019-03-04T08:11:56.779Z,2.40
2019-03-04T08:14:38.454Z,2.03
2019-03-04T08:17:20.349Z,2.73
2019-03-04T08:20:02.181Z,3.43
2019-03-04T08:22:44.396Z,3.50
2019-03-04T08:25:26.417Z,5.07
2019-03-04T08:28:08.386Z,2.83
2019-03-04T08:30:49.865Z,2.27
2019-03-04T08:33:32.088Z,3.80
2019-03-04T08:36:14.074Z,2.97
2019-03-04T08:38:55.833Z,5.27
2019-03-04T08:41:37.874Z,3.00
2019-03-04T08:44:19.489Z,1.37
2019-03-04T08:46:49.761Z,4.30
2019-03-04T08:49:39.404Z,5.87
2019-03-04T08:52:21.199Z,3.43
2019-03-04T08:55:03.253Z,2.50
2019-03-04T08:57:45.120Z,1.83
2019-03-04T09:00:27.996Z,5.00
2019-03-04T09:03:09.811Z,2.57
2019-03-04T09:05:51.878Z,2.03
2019-03-04T09:08:33.751Z,3.40
2019-03-04T09:11:15.610Z,4.00
2019-03-04T09:13:57.219Z,4.73
2019-03-04T09:16:39.257Z,6.17
2019-03-04T09:19:21.387Z,3.83
2019-03-04T09:22:03.618Z,3.47
2019-03-04T09:24:45.688Z,3.70
2019-03-04T09:27:27.423Z,6.13
2019-03-04T09:30:09.579Z,4.80
2019-03-04T09:32:51.536Z,5.90
2019-03-04T09:35:33.668Z,4.33
2019-03-04T09:38:15.947Z,5.67
2019-03-04T09:40:58.111Z,4.37
2019-03-04T09:43:40.319Z,6.23
2019-03-04T09:46:22.543Z,4.50
2019-03-04T09:49:04.339Z,5.90
2019-03-04T09:51:46.581Z,7.60
2019-03-04T09:54:28.483Z,6.00
2019-03-04T09:57:10.602Z,5.87
2019-03-04T09:59:52.759Z,6.87
2019-03-04T10:02:34.974Z,6.37
2019-03-04T10:05:17.376Z,6.57
2019-03-04T10:07:58.846Z,7.13
2019-03-04T10:10:41.224Z,7.27
2019-03-04T10:13:23.263Z,6.93
2019-03-04T10:16:31.699Z,6.43
2019-03-04T10:19:13.558Z,6.10
2019-03-04T10:21:55.845Z,7.60
2019-03-04T10:24:39.742Z,6.33
2019-03-04T10:27:21.886Z,10.07
2019-03-04T10:30:15.139Z,7.33
2019-03-04T10:33:23.558Z,6.23
2019-03-04T10:36:25.905Z,8.83
2019-03-04T10:39:34.303Z,8.23
2019-03-04T10:42:15.999Z,8.10
2019-03-04T10:44:57.648Z,11.63
2019-03-04T10:47:39.719Z,9.33
2019-03-04T10:50:21.705Z,5.33
2019-03-04T10:53:03.443Z,7.23
2019-03-04T10:55:45.023Z,5.83
2019-03-04T10:58:27.292Z,8.50
2019-03-04T11:00:57.803Z,5.83
2019-03-04T11:03:40.015Z,5.27
2019-03-04T11:06:22.275Z,4.93
2019-03-04T11:09:05.138Z,5.87
2019-03-04T11:11:47.198Z,5.47
2019-03-04T11:14:29.953Z,6.30
2019-03-04T11:17:00.273Z,7.00
2019-03-04T11:20:01.047Z,4.73
2019-03-04T11:22:31.437Z,3.27
2019-03-04T11:25:20.692Z,4.87
2019-03-04T11:28:02.779Z,3.60
2019-03-04T11:30:46.774Z,7.50
2019-03-04T11:33:29.614Z,6.93
2019-03-04T11:36:11.587Z,3.57
2019-03-04T11:38:53.722Z,4.87
2019-03-04T11:41:36.082Z,4.37
2019-03-04T11:44:18.198Z,4.73
2019-03-04T11:47:00.570Z,4.07
2019-03-04T11:49:42.911Z,6.10
2019-03-04T11:52:25.137Z,4.27
2019-03-04T11:55:06.976Z,1.20
2019-03-04T11:57:49.459Z,3.60
2019-03-04T12:00:36.497Z,2.63
2019-03-04T12:03:18.907Z,1.90
2019-03-04T12:05:49.383Z,2.83
2019-03-04T12:08:30.917Z,2.40
2019-03-04T12:11:13.379Z,4.03
2019-03-04T12:13:55.548Z,2.77
2019-03-04T12:16:37.678Z,3.57
2019-03-04T12:19:19.778Z,2.73
2019-03-04T12:22:02.830Z,1.43
2019-03-04T12:24:44.728Z,3.80
2019-03-04T12:27:27.052Z,2.60
2019-03-04T12:30:08.599Z,2.13
2019-03-04T12:32:50.735Z,1.37
2019-03-04T12:35:32.645Z,1.93
2019-03-04T12:38:03.723Z,2.47
2019-03-04T12:40:45.829Z,1.27
2019-03-04T12:43:29.410Z,0.80
2019-03-04T12:46:11.696Z,0.80
2019-03-04T12:48:53.616Z,0.67
2019-03-04T12:51:35.400Z,1.33
2019-03-04T12:54:18.245Z,2.40
2019-03-04T12:57:00.794Z,1.20
2019-03-04T12:59:43.171Z,1.37
2019-03-04T13:02:25.402Z,1.07
2019-03-04T13:05:07.382Z,2.53
2019-03-04T13:07:49.477Z,2.73
2019-03-04T13:10:31.845Z,3.43
2019-03-04T13:13:13.526Z,2.83
2019-03-04T13:15:56.626Z,2.83
2019-03-04T13:18:40.499Z,2.40
2019-03-04T13:21:22.437Z,2.63
2019-03-04T13:24:04.450Z,4.33
2019-03-04T13:26:46.613Z,1.50
2019-03-04T13:29:28.787Z,1.50
2019-03-04T13:32:11.552Z,1.73
2019-03-04T13:34:53.312Z,1.40
2019-03-04T13:37:37.883Z,2.90
2019-03-04T13:40:19.712Z,2.17
2019-03-04T13:43:03.364Z,2.60
2019-03-04T13:45:45.518Z,1.93
2019-03-04T13:48:27.621Z,3.67
2019-03-04T13:51:09.597Z,3.43
2019-03-04T13:53:51.614Z,1.90
2019-03-04T13:56:33.699Z,3.73
2019-03-04T13:59:16.042Z,3.40
2019-03-04T14:01:57.593Z,2.10
2019-03-04T14:04:39.489Z,3.03
2019-03-04T14:07:21.631Z,5.33
2019-03-04T14:10:03.735Z,4.30
2019-03-04T14:12:45.961Z,2.93
2019-03-04T14:15:27.934Z,4.07
2019-03-04T14:18:11.162Z,3.07
2019-03-04T14:20:53.300Z,3.40
2019-03-04T14:23:36.423Z,3.63
2019-03-04T14:26:18.353Z,2.53
2019-03-04T14:29:00.437Z,3.87
2019-03-04T14:31:44.315Z,3.30
2019-03-04T14:34:14.860Z,3.17
2019-03-04T14:37:04.130Z,5.10
2019-03-04T14:39:46.291Z,2.80
2019-03-04T14:42:29.545Z,4.93
2019-03-04T14:45:11.554Z,3.53
2019-03-04T14:47:53.581Z,3.10
2019-03-04T14:50:35.226Z,4.77
2019-03-04T14:53:17.236Z,2.77
2019-03-04T14:56:01.235Z,3.60
2019-03-04T14:58:42.639Z,4.57
2019-03-04T15:01:24.734Z,4.40
2019-03-04T15:04:06.614Z,5.37
2019-03-04T15:06:48.157Z,5.97
2019-03-04T15:09:30.284Z,4.87
2019-03-04T15:12:11.737Z,4.40
2019-03-04T15:14:53.639Z,4.63
2019-03-04T15:17:35.427Z,5.40
2019-03-04T15:20:17.888Z,6.80
2019-03-04T15:23:00.040Z,5.00
2019-03-04T15:28:47.308Z,5.87
2019-03-04T15:31:28.890Z,8.07
2019-03-04T15:34:10.948Z,4.90
2019-03-04T15:36:52.868Z,7.00
2019-03-04T15:39:34.827Z,4.77
2019-03-04T15:42:17.066Z,5.33
2019-03-04T15:44:58.950Z,6.80
2019-03-04T15:47:40.854Z,5.17
2019-03-04T15:50:22.893Z,6.17
2019-03-04T15:53:04.459Z,7.13
2019-03-04T15:55:46.158Z,6.00
2019-03-04T15:58:28.298Z,6.97
2019-03-04T16:01:10.498Z,6.23
2019-03-04T16:03:52.580Z,3.00
2019-03-04T16:06:36.424Z,5.13
2019-03-04T16:09:20.616Z,5.53
2019-03-04T16:12:03.202Z,5.10
2019-03-04T16:14:44.940Z,5.17
2019-03-04T16:17:26.882Z,5.50
2019-03-04T16:20:15.795Z,4.30
2019-03-04T16:22:52.904Z,6.07
2019-03-04T16:25:34.850Z,5.93
2019-03-04T16:28:17.026Z,4.07
2019-03-04T16:30:59.717Z,6.50
2019-03-04T16:33:41.259Z,5.20
2019-03-04T16:36:23.802Z,7.13
2019-03-04T16:39:06.092Z,4.30
2019-03-04T16:41:49.219Z,5.50
2019-03-04T16:44:32.584Z,4.27
2019-03-04T16:47:14.123Z,4.93
2019-03-04T16:49:57.332Z,3.30
2019-03-04T16:52:39.346Z,7.53
2019-03-04T16:55:21.516Z,7.63
2019-03-04T16:58:03.525Z,5.50
2019-03-04T17:00:45.749Z,4.33
2019-03-04T17:03:28.006Z,7.80
2019-03-04T17:06:10.074Z,4.47
2019-03-04T17:08:52.077Z,3.73
2019-03-04T17:11:34.127Z,7.77
2019-03-04T17:14:15.932Z,5.77
2019-03-04T17:16:58.465Z,4.70
2019-03-04T17:19:40.683Z,5.50
2019-03-04T17:22:23.070Z,4.20
2019-03-04T17:25:05.543Z,3.67
2019-03-04T17:27:47.535Z,4.47
2019-03-04T17:30:30.879Z,4.57
2019-03-04T17:33:12.996Z,5.13
2019-03-04T17:35:54.984Z,5.23
2019-03-04T17:38:36.797Z,5.20
2019-03-04T17:41:18.685Z,7.93
2019-03-04T17:44:03.097Z,7.67
2019-03-04T17:46:45.151Z,4.27
2019-03-04T17:49:26.912Z,6.80
2019-03-04T17:52:08.799Z,5.10
2019-03-04T17:54:50.591Z,6.33
2019-03-04T17:57:33.089Z,5.13
2019-03-04T18:00:15.571Z,7.70
2019-03-04T18:02:57.587Z,4.60
2019-03-04T18:05:39.617Z,6.00
2019-03-04T18:08:22.135Z,4.67
2019-03-04T18:11:03.854Z,5.03
2019-03-04T18:13:46.026Z,4.57
2019-03-04T18:16:27.659Z,6.30
2019-03-04T18:19:09.528Z,8.00
2019-03-04T18:21:51.498Z,3.50
2019-03-04T18:24:33.442Z,7.50
2019-03-04T18:27:16.551Z,4.27
2019-03-04T18:29:58.774Z,7.97
2019-03-04T18:32:42.002Z,3.80
2019-03-04T18:35:24.293Z,5.83
2019-03-04T18:38:06.366Z,5.93
2019-03-04T18:40:48.405Z,3.93
2019-03-04T18:43:30.770Z,9.60
2019-03-04T18:46:12.378Z,5.27
2019-03-04T18:48:55.633Z,5.30
2019-03-04T18:51:37.503Z,4.63
2019-03-04T18:54:19.537Z,3.93
2019-03-04T18:57:01.546Z,6.07
2019-03-04T18:59:44.991Z,3.67
2019-03-04T19:02:28.056Z,6.13
2019-03-04T19:05:11.284Z,4.40
2019-03-04T19:07:53.725Z,4.80
2019-03-04T19:10:35.923Z,6.63
2019-03-04T19:13:18.260Z,7.90
2019-03-04T19:16:00.711Z,4.50
2019-03-04T19:18:42.963Z,8.20
2019-03-04T19:21:26.138Z,5.93
2019-03-04T19:24:10.519Z,6.47
2019-03-04T19:26:56.229Z,6.63
2019-03-04T19:29:38.834Z,8.33
2019-03-04T19:32:21.376Z,6.50
2019-03-04T19:35:03.379Z,5.17
2019-03-04T19:37:47.598Z,4.70
2019-03-04T19:40:29.706Z,5.93
2019-03-04T19:43:11.899Z,6.37
2019-03-04T19:45:42.451Z,4.97
2019-03-04T19:48:25.413Z,6.40
2019-03-04T19:51:07.850Z,6.57
2019-03-04T19:53:49.635Z,6.50
2019-03-04T19:56:31.982Z,6.23
2019-03-04T19:59:13.812Z,5.33
2019-03-04T20:01:55.714Z,9.20
2019-03-04T20:04:37.873Z,6.37
2019-03-04T20:07:20.094Z,5.13
2019-03-04T20:10:02.435Z,4.77
2019-03-04T20:12:44.433Z,6.50
2019-03-04T20:15:26.338Z,6.47
2019-03-04T20:21:17.894Z,7.73
2019-03-04T20:23:59.451Z,4.87
2019-03-04T20:26:41.450Z,9.03
2019-03-04T20:29:11.808Z,7.13
2019-03-04T20:31:53.507Z,6.07
2019-03-04T20:34:35.054Z,4.83
2019-03-04T20:37:17.318Z,6.53
2019-03-04T20:39:59.603Z,5.63
2019-03-04T20:42:41.787Z,6.40
2019-03-04T20:45:24.279Z,8.43
2019-03-04T20:47:54.662Z,4.90
2019-03-04T20:50:46.384Z,4.30
2019-03-04T20:53:25.984Z,4.93
2019-03-04T20:56:15.429Z,3.07
2019-03-04T20:58:57.703Z,6.43
2019-03-04T21:01:40.262Z,4.67
2019-03-04T21:04:22.252Z,4.33
2019-03-04T21:07:04.513Z,3.07
2019-03-04T21:09:47.507Z,4.97
2019-03-04T21:12:29.826Z,3.30
2019-03-04T21:15:11.537Z,3.40
2019-03-04T21:17:53.937Z,3.83
2019-03-04T21:20:36.186Z,2.23
2019-03-04T21:23:18.592Z,2.73
2019-03-04T21:26:00.418Z,3.33
2019-03-04T21:28:41.927Z,3.10
2019-03-04T21:31:24.184Z,4.43
2019-03-04T21:34:05.893Z,4.53
2019-03-04T21:36:49.436Z,3.23
2019-03-04T21:39:20.466Z,1.80
2019-03-04T21:42:11.963Z,2.37
2019-03-04T21:44:54.463Z,3.13
2019-03-04T21:47:36.482Z,6.00
2019-03-04T21:50:18.958Z,5.63
2019-03-04T21:53:01.123Z,1.60
2019-03-04T21:55:43.486Z,7.27
2019-03-04T21:58:25.395Z,4.00
2019-03-04T22:01:07.274Z,4.73
2019-03-04T22:03:48.970Z,4.07
2019-03-04T22:06:31.012Z,5.57
2019-03-04T22:09:14.208Z,3.37
2019-03-04T22:11:56.194Z,4.43
2019-03-04T22:14:38.582Z,4.93
2019-03-04T22:17:21.103Z,3.87
2019-03-04T22:20:03.094Z,4.00
2019-03-04T22:22:45.070Z,2.97
2019-03-04T22:25:27.125Z,3.03
2019-03-04T22:28:09.052Z,3.60
2019-03-04T22:30:51.329Z,4.17
2019-03-04T22:33:33.925Z,11.00
2019-03-04T22:36:16.197Z,4.57
2019-03-04T22:38:58.265Z,7.00
2019-03-04T22:41:28.550Z,5.17
2019-03-04T22:44:17.838Z,4.30
2019-03-04T22:47:01.710Z,3.70
2019-03-04T22:49:44.062Z,4.43
2019-03-04T22:52:26.228Z,4.60
2019-03-04T22:55:08.138Z,6.23
2019-03-04T22:57:50.936Z,6.70
2019-03-04T23:00:35.063Z,6.47
2019-03-04T23:03:18.499Z,7.00
2019-03-04T23:06:00.761Z,5.63
2019-03-04T23:08:42.871Z,7.47
2019-03-04T23:11:25.097Z,8.80
2019-03-04T23:14:07.059Z,7.40
2019-03-04T23:16:49.162Z,8.87
2019-03-04T23:19:31.403Z,4.37
2019-03-04T23:22:13.226Z,5.13
2019-03-04T23:24:55.271Z,6.67
2019-03-04T23:27:37.318Z,10.03
2019-03-04T23:30:19.621Z,8.87
2019-03-04T23:33:01.230Z,5.13
2019-03-04T23:35:43.273Z,5.83
2019-03-04T23:38:25.322Z,5.70
2019-03-04T23:41:07.705Z,8.13
2019-03-04T23:43:49.921Z,6.53
2019-03-04T23:46:32.017Z,5.27
2019-03-04T23:49:13.930Z,7.17
2019-03-04T23:51:55.862Z,8.10
2019-03-04T23:54:38.003Z,6.67
2019-03-04T23:57:19.876Z,6.20
